Glovertown, Canada
Current Conditions -  °F | °C
As of 2:00 AM on Tuesday 23 Dec 2014 (Local Time) from CYQX Reporting Station
Overcast Overcast  
Wind Chill: 17°   Ceiling: 800
Heat Index: 23°   Visibility: 15mi
Dew Point: 19°   Wind: 5mph
Humidity: 86%   Direction: 190°S
Pressure: 30.44"   Gusts: NA
Location:  48.67°N, 54.05°W
Report Text: CYQX 230500Z 19004KT 160V260 15SM OVC008 M05/M07 A3044 RMK SF8 SLP316
Loading
Personal Weather Stations






























Interactive Weather Map New forecast layout! Learn more

10-Day Weather Forecast

Advertisements
Track Severe Weather on mobile